sensor_id;sensor_type;location;lat;lon;timestamp;P1;durP1;ratioP1;P2;durP2;ratioP2
69327;SDS011;56472;52.114;5.492;2023-04-15T00:01:00;7.53;;;5.88;;
69327;SDS011;56472;52.114;5.492;2023-04-15T00:03:27;10.05;;;6.05;;
69327;SDS011;56472;52.114;5.492;2023-04-15T00:05:55;12.18;;;6.35;;
69327;SDS011;56472;52.114;5.492;2023-04-15T00:08:23;16.75;;;5.97;;
69327;SDS011;56472;52.114;5.492;2023-04-15T00:10:50;13.60;;;6.05;;
69327;SDS011;56472;52.114;5.492;2023-04-15T00:13:16;9.23;;;5.68;;
69327;SDS011;56472;52.114;5.492;2023-04-15T00:15:43;10.73;;;6.25;;
69327;SDS011;56472;52.114;5.492;2023-04-15T00:18:10;9.43;;;5.75;;
69327;SDS011;56472;52.114;5.492;2023-04-15T00:20:37;9.00;;;6.13;;
69327;SDS011;56472;52.114;5.492;2023-04-15T00:23:04;9.15;;;6.20;;
69327;SDS011;56472;52.114;5.492;2023-04-15T00:25:31;15.73;;;6.38;;
69327;SDS011;56472;52.114;5.492;2023-04-15T00:27:58;15.75;;;6.25;;
69327;SDS011;56472;52.114;5.492;2023-04-15T00:30:25;10.52;;;6.38;;
69327;SDS011;56472;52.114;5.492;2023-04-15T00:32:52;10.00;;;6.97;;
69327;SDS011;56472;52.114;5.492;2023-04-15T00:35:20;11.07;;;6.13;;
69327;SDS011;56472;52.114;5.492;2023-04-15T00:37:49;9.15;;;6.13;;
69327;SDS011;56472;52.114;5.492;2023-04-15T00:40:17;11.82;;;5.93;;
69327;SDS011;56472;52.114;5.492;2023-04-15T00:42:46;12.80;;;6.22;;
69327;SDS011;56472;52.114;5.492;2023-04-15T00:45:16;14.43;;;7.05;;
69327;SDS011;56472;52.114;5.492;2023-04-15T00:47:43;12.70;;;6.97;;
69327;SDS011;56472;52.114;5.492;2023-04-15T00:50:11;12.68;;;6.38;;
69327;SDS011;56472;52.114;5.492;2023-04-15T00:52:38;13.73;;;7.22;;
69327;SDS011;56472;52.114;5.492;2023-04-15T00:55:06;16.33;;;5.90;;
69327;SDS011;56472;52.114;5.492;2023-04-15T00:57:34;8.13;;;6.40;;
69327;SDS011;56472;52.114;5.492;2023-04-15T01:00:02;9.55;;;6.45;;
69327;SDS011;56472;52.114;5.492;2023-04-15T01:02:31;13.15;;;6.57;;
69327;SDS011;56472;52.114;5.492;2023-04-15T01:05:00;11.43;;;6.97;;
69327;SDS011;56472;52.114;5.492;2023-04-15T01:07:27;9.98;;;6.45;;
69327;SDS011;56472;52.114;5.492;2023-04-15T01:09:54;14.27;;;6.78;;
69327;SDS011;56472;52.114;5.492;2023-04-15T01:12:22;11.57;;;6.80;;
69327;SDS011;56472;52.114;5.492;2023-04-15T01:14:54;20.73;;;8.48;;
69327;SDS011;56472;52.114;5.492;2023-04-15T01:17:23;10.70;;;6.70;;
69327;SDS011;56472;52.114;5.492;2023-04-15T01:19:50;10.15;;;6.55;;
69327;SDS011;56472;52.114;5.492;2023-04-15T01:22:17;14.95;;;6.75;;
69327;SDS011;56472;52.114;5.492;2023-04-15T01:25:00;14.38;;;6.32;;
69327;SDS011;56472;52.114;5.492;2023-04-15T01:27:33;12.15;;;7.30;;
69327;SDS011;56472;52.114;5.492;2023-04-15T01:30:03;11.48;;;6.97;;
69327;SDS011;56472;52.114;5.492;2023-04-15T01:32:31;10.60;;;6.82;;
69327;SDS011;56472;52.114;5.492;2023-04-15T01:34:58;11.73;;;7.40;;
69327;SDS011;56472;52.114;5.492;2023-04-15T01:37:25;15.07;;;7.13;;
69327;SDS011;56472;52.114;5.492;2023-04-15T01:39:53;13.80;;;7.00;;
69327;SDS011;56472;52.114;5.492;2023-04-15T01:42:21;10.48;;;7.03;;
69327;SDS011;56472;52.114;5.492;2023-04-15T01:44:48;10.88;;;7.15;;
69327;SDS011;56472;52.114;5.492;2023-04-15T01:47:15;10.48;;;6.72;;
69327;SDS011;56472;52.114;5.492;2023-04-15T01:49:42;12.88;;;7.07;;
69327;SDS011;56472;52.114;5.492;2023-04-15T01:52:09;11.75;;;6.85;;
69327;SDS011;56472;52.114;5.492;2023-04-15T01:54:35;12.05;;;6.97;;
69327;SDS011;56472;52.114;5.492;2023-04-15T01:57:02;10.90;;;6.47;;
69327;SDS011;56472;52.114;5.492;2023-04-15T01:59:30;13.68;;;7.25;;
69327;SDS011;56472;52.114;5.492;2023-04-15T02:01:57;12.43;;;6.70;;
69327;SDS011;56472;52.114;5.492;2023-04-15T02:04:25;14.68;;;7.30;;
69327;SDS011;56472;52.114;5.492;2023-04-15T02:06:53;8.55;;;6.70;;
69327;SDS011;56472;52.114;5.492;2023-04-15T02:09:20;10.43;;;6.95;;
69327;SDS011;56472;52.114;5.492;2023-04-15T02:11:47;9.57;;;7.13;;
69327;SDS011;56472;52.114;5.492;2023-04-15T02:14:14;18.40;;;6.78;;
69327;SDS011;56472;52.114;5.492;2023-04-15T02:16:40;8.85;;;6.40;;
69327;SDS011;56472;52.114;5.492;2023-04-15T02:19:07;8.13;;;6.78;;
69327;SDS011;56472;52.114;5.492;2023-04-15T02:21:36;13.50;;;6.68;;
69327;SDS011;56472;52.114;5.492;2023-04-15T02:24:03;8.70;;;6.80;;
69327;SDS011;56472;52.114;5.492;2023-04-15T02:26:30;21.20;;;7.53;;
69327;SDS011;56472;52.114;5.492;2023-04-15T02:28:59;12.50;;;6.75;;
69327;SDS011;56472;52.114;5.492;2023-04-15T02:31:26;10.95;;;6.13;;
69327;SDS011;56472;52.114;5.492;2023-04-15T02:33:53;13.48;;;6.25;;
69327;SDS011;56472;52.114;5.492;2023-04-15T02:36:20;15.30;;;6.68;;
69327;SDS011;56472;52.114;5.492;2023-04-15T02:38:49;11.38;;;6.60;;
69327;SDS011;56472;52.114;5.492;2023-04-15T02:41:16;11.63;;;6.80;;
69327;SDS011;56472;52.114;5.492;2023-04-15T02:43:44;11.70;;;6.82;;
69327;SDS011;56472;52.114;5.492;2023-04-15T02:46:12;11.27;;;6.38;;
69327;SDS011;56472;52.114;5.492;2023-04-15T02:48:40;8.23;;;6.60;;
69327;SDS011;56472;52.114;5.492;2023-04-15T02:51:11;8.20;;;6.55;;
69327;SDS011;56472;52.114;5.492;2023-04-15T02:53:46;10.85;;;6.97;;
69327;SDS011;56472;52.114;5.492;2023-04-15T02:56:14;9.98;;;6.72;;
69327;SDS011;56472;52.114;5.492;2023-04-15T02:58:43;10.40;;;6.78;;
69327;SDS011;56472;52.114;5.492;2023-04-15T03:01:11;8.60;;;6.22;;
69327;SDS011;56472;52.114;5.492;2023-04-15T03:03:39;12.55;;;6.65;;
69327;SDS011;56472;52.114;5.492;2023-04-15T03:06:06;9.25;;;5.72;;
69327;SDS011;56472;52.114;5.492;2023-04-15T03:08:34;7.63;;;5.88;;
69327;SDS011;56472;52.114;5.492;2023-04-15T03:11:01;9.32;;;6.43;;
69327;SDS011;56472;52.114;5.492;2023-04-15T03:13:29;8.20;;;6.38;;
69327;SDS011;56472;52.114;5.492;2023-04-15T03:15:59;7.22;;;6.47;;
69327;SDS011;56472;52.114;5.492;2023-04-15T03:18:26;8.90;;;6.40;;
69327;SDS011;56472;52.114;5.492;2023-04-15T03:20:54;8.60;;;6.03;;
69327;SDS011;56472;52.114;5.492;2023-04-15T03:23:21;8.63;;;5.80;;
69327;SDS011;56472;52.114;5.492;2023-04-15T03:25:48;6.85;;;6.00;;
69327;SDS011;56472;52.114;5.492;2023-04-15T03:28:15;8.32;;;6.68;;
69327;SDS011;56472;52.114;5.492;2023-04-15T03:30:42;9.57;;;6.30;;
69327;SDS011;56472;52.114;5.492;2023-04-15T03:33:10;9.15;;;6.55;;
69327;SDS011;56472;52.114;5.492;2023-04-15T03:35:37;10.63;;;6.45;;
69327;SDS011;56472;52.114;5.492;2023-04-15T03:38:04;10.35;;;6.22;;
69327;SDS011;56472;52.114;5.492;2023-04-15T03:40:31;12.45;;;6.35;;
69327;SDS011;56472;52.114;5.492;2023-04-15T03:42:58;9.52;;;7.18;;
69327;SDS011;56472;52.114;5.492;2023-04-15T03:45:25;8.98;;;6.05;;
69327;SDS011;56472;52.114;5.492;2023-04-15T03:47:51;7.13;;;6.25;;
69327;SDS011;56472;52.114;5.492;2023-04-15T03:50:18;9.10;;;6.45;;
69327;SDS011;56472;52.114;5.492;2023-04-15T03:52:45;14.80;;;7.80;;
69327;SDS011;56472;52.114;5.492;2023-04-15T03:55:15;9.32;;;7.00;;
69327;SDS011;56472;52.114;5.492;2023-04-15T03:57:42;9.60;;;6.78;;
69327;SDS011;56472;52.114;5.492;2023-04-15T04:00:09;11.18;;;7.55;;
69327;SDS011;56472;52.114;5.492;2023-04-15T04:02:38;11.88;;;7.05;;
69327;SDS011;56472;52.114;5.492;2023-04-15T04:05:06;9.30;;;7.13;;
69327;SDS011;56472;52.114;5.492;2023-04-15T04:07:33;11.15;;;7.22;;
69327;SDS011;56472;52.114;5.492;2023-04-15T04:10:01;12.65;;;7.22;;
69327;SDS011;56472;52.114;5.492;2023-04-15T04:12:29;10.25;;;6.63;;
69327;SDS011;56472;52.114;5.492;2023-04-15T04:14:55;9.82;;;7.30;;
69327;SDS011;56472;52.114;5.492;2023-04-15T04:17:22;8.95;;;6.57;;
69327;SDS011;56472;52.114;5.492;2023-04-15T04:19:49;11.30;;;7.45;;
69327;SDS011;56472;52.114;5.492;2023-04-15T04:22:16;8.43;;;7.53;;
69327;SDS011;56472;52.114;5.492;2023-04-15T04:24:43;16.05;;;7.10;;
69327;SDS011;56472;52.114;5.492;2023-04-15T04:27:10;12.45;;;6.80;;
69327;SDS011;56472;52.114;5.492;2023-04-15T04:29:37;8.20;;;6.25;;
69327;SDS011;56472;52.114;5.492;2023-04-15T04:32:04;12.82;;;8.15;;
69327;SDS011;56472;52.114;5.492;2023-04-15T04:34:31;12.05;;;7.22;;
69327;SDS011;56472;52.114;5.492;2023-04-15T04:36:58;12.77;;;7.43;;
69327;SDS011;56472;52.114;5.492;2023-04-15T04:39:24;16.73;;;7.45;;
69327;SDS011;56472;52.114;5.492;2023-04-15T04:41:51;10.50;;;7.68;;
69327;SDS011;56472;52.114;5.492;2023-04-15T04:44:18;11.30;;;7.90;;
69327;SDS011;56472;52.114;5.492;2023-04-15T04:46:45;12.57;;;8.50;;
69327;SDS011;56472;52.114;5.492;2023-04-15T04:49:12;9.95;;;7.57;;
69327;SDS011;56472;52.114;5.492;2023-04-15T04:51:39;11.40;;;8.10;;
69327;SDS011;56472;52.114;5.492;2023-04-15T04:54:06;11.80;;;7.70;;
69327;SDS011;56472;52.114;5.492;2023-04-15T04:56:32;11.27;;;8.05;;
69327;SDS011;56472;52.114;5.492;2023-04-15T04:58:59;15.82;;;7.47;;
69327;SDS011;56472;52.114;5.492;2023-04-15T05:01:27;11.13;;;8.10;;
69327;SDS011;56472;52.114;5.492;2023-04-15T05:03:54;13.18;;;7.43;;
69327;SDS011;56472;52.114;5.492;2023-04-15T05:06:21;10.07;;;7.70;;
69327;SDS011;56472;52.114;5.492;2023-04-15T05:08:48;15.00;;;8.45;;
69327;SDS011;56472;52.114;5.492;2023-04-15T05:11:15;12.02;;;7.80;;
69327;SDS011;56472;52.114;5.492;2023-04-15T05:13:42;22.55;;;9.57;;
69327;SDS011;56472;52.114;5.492;2023-04-15T05:16:12;16.15;;;8.18;;
69327;SDS011;56472;52.114;5.492;2023-04-15T05:18:39;9.85;;;8.43;;
69327;SDS011;56472;52.114;5.492;2023-04-15T05:21:06;12.65;;;8.23;;
69327;SDS011;56472;52.114;5.492;2023-04-15T05:23:33;10.65;;;8.18;;
69327;SDS011;56472;52.114;5.492;2023-04-15T05:26:00;16.00;;;8.48;;
69327;SDS011;56472;52.114;5.492;2023-04-15T05:28:27;14.10;;;8.73;;
69327;SDS011;56472;52.114;5.492;2023-04-15T05:30:53;11.93;;;8.10;;
69327;SDS011;56472;52.114;5.492;2023-04-15T05:33:20;10.43;;;8.25;;
69327;SDS011;56472;52.114;5.492;2023-04-15T05:35:48;9.15;;;8.25;;
69327;SDS011;56472;52.114;5.492;2023-04-15T05:38:15;11.43;;;8.70;;
69327;SDS011;56472;52.114;5.492;2023-04-15T05:40:42;14.10;;;8.60;;
69327;SDS011;56472;52.114;5.492;2023-04-15T05:43:08;12.38;;;8.88;;
69327;SDS011;56472;52.114;5.492;2023-04-15T05:45:35;17.25;;;9.07;;
69327;SDS011;56472;52.114;5.492;2023-04-15T05:48:02;11.38;;;8.35;;
69327;SDS011;56472;52.114;5.492;2023-04-15T05:50:29;11.05;;;8.55;;
69327;SDS011;56472;52.114;5.492;2023-04-15T05:52:56;9.63;;;8.05;;
69327;SDS011;56472;52.114;5.492;2023-04-15T05:55:23;15.50;;;9.05;;
69327;SDS011;56472;52.114;5.492;2023-04-15T05:57:50;16.83;;;8.95;;
69327;SDS011;56472;52.114;5.492;2023-04-15T06:00:17;15.25;;;10.07;;
69327;SDS011;56472;52.114;5.492;2023-04-15T06:02:45;14.75;;;9.10;;
69327;SDS011;56472;52.114;5.492;2023-04-15T06:05:12;12.77;;;8.70;;
69327;SDS011;56472;52.114;5.492;2023-04-15T06:07:39;15.75;;;7.78;;
69327;SDS011;56472;52.114;5.492;2023-04-15T06:10:07;15.15;;;9.25;;
69327;SDS011;56472;52.114;5.492;2023-04-15T06:12:34;13.95;;;9.73;;
69327;SDS011;56472;52.114;5.492;2023-04-15T06:15:01;12.38;;;9.10;;
69327;SDS011;56472;52.114;5.492;2023-04-15T06:17:29;11.20;;;8.60;;
69327;SDS011;56472;52.114;5.492;2023-04-15T06:19:56;10.35;;;8.45;;
69327;SDS011;56472;52.114;5.492;2023-04-15T06:22:23;10.43;;;9.20;;
69327;SDS011;56472;52.114;5.492;2023-04-15T06:24:50;10.75;;;8.98;;
69327;SDS011;56472;52.114;5.492;2023-04-15T06:27:17;10.68;;;8.93;;
69327;SDS011;56472;52.114;5.492;2023-04-15T06:29:44;13.52;;;9.50;;
69327;SDS011;56472;52.114;5.492;2023-04-15T06:32:11;10.43;;;9.10;;
69327;SDS011;56472;52.114;5.492;2023-04-15T06:34:38;15.25;;;9.68;;
69327;SDS011;56472;52.114;5.492;2023-04-15T06:37:05;12.38;;;9.18;;
69327;SDS011;56472;52.114;5.492;2023-04-15T06:39:32;11.55;;;9.40;;
69327;SDS011;56472;52.114;5.492;2023-04-15T06:41:59;14.05;;;10.20;;
69327;SDS011;56472;52.114;5.492;2023-04-15T06:44:26;13.27;;;9.63;;
69327;SDS011;56472;52.114;5.492;2023-04-15T06:46:54;15.05;;;9.43;;
69327;SDS011;56472;52.114;5.492;2023-04-15T06:49:21;15.15;;;10.10;;
69327;SDS011;56472;52.114;5.492;2023-04-15T06:51:48;13.98;;;9.77;;
69327;SDS011;56472;52.114;5.492;2023-04-15T06:54:16;15.00;;;10.25;;
69327;SDS011;56472;52.114;5.492;2023-04-15T06:56:43;15.82;;;10.25;;
69327;SDS011;56472;52.114;5.492;2023-04-15T06:59:10;17.23;;;9.93;;
69327;SDS011;56472;52.114;5.492;2023-04-15T07:01:38;14.02;;;10.15;;
69327;SDS011;56472;52.114;5.492;2023-04-15T07:04:07;14.18;;;10.30;;
69327;SDS011;56472;52.114;5.492;2023-04-15T07:06:37;12.82;;;9.82;;
69327;SDS011;56472;52.114;5.492;2023-04-15T07:09:04;12.63;;;9.77;;
69327;SDS011;56472;52.114;5.492;2023-04-15T07:11:31;13.10;;;10.27;;
69327;SDS011;56472;52.114;5.492;2023-04-15T07:13:58;12.80;;;9.38;;
69327;SDS011;56472;52.114;5.492;2023-04-15T07:16:25;21.05;;;10.18;;
69327;SDS011;56472;52.114;5.492;2023-04-15T07:18:55;17.30;;;10.48;;
69327;SDS011;56472;52.114;5.492;2023-04-15T07:21:23;15.80;;;10.82;;
69327;SDS011;56472;52.114;5.492;2023-04-15T07:23:50;12.43;;;9.60;;
69327;SDS011;56472;52.114;5.492;2023-04-15T07:26:17;14.88;;;10.55;;
69327;SDS011;56472;52.114;5.492;2023-04-15T07:28:44;17.27;;;10.38;;
69327;SDS011;56472;52.114;5.492;2023-04-15T07:31:12;12.85;;;9.23;;
69327;SDS011;56472;52.114;5.492;2023-04-15T07:33:40;11.30;;;9.02;;
69327;SDS011;56472;52.114;5.492;2023-04-15T07:36:07;10.90;;;8.30;;
69327;SDS011;56472;52.114;5.492;2023-04-15T07:38:34;12.23;;;8.00;;
69327;SDS011;56472;52.114;5.492;2023-04-15T07:41:01;13.18;;;8.05;;
69327;SDS011;56472;52.114;5.492;2023-04-15T07:43:28;9.85;;;8.15;;
69327;SDS011;56472;52.114;5.492;2023-04-15T07:45:55;10.43;;;7.80;;
69327;SDS011;56472;52.114;5.492;2023-04-15T07:48:22;12.10;;;7.90;;
69327;SDS011;56472;52.114;5.492;2023-04-15T07:50:49;8.15;;;7.22;;
69327;SDS011;56472;52.114;5.492;2023-04-15T07:53:16;16.27;;;8.00;;
69327;SDS011;56472;52.114;5.492;2023-04-15T07:55:43;11.35;;;7.85;;
69327;SDS011;56472;52.114;5.492;2023-04-15T07:58:10;10.13;;;7.63;;
69327;SDS011;56472;52.114;5.492;2023-04-15T08:00:36;8.15;;;6.75;;
69327;SDS011;56472;52.114;5.492;2023-04-15T08:03:03;7.90;;;6.95;;
69327;SDS011;56472;52.114;5.492;2023-04-15T08:05:30;9.23;;;7.53;;
69327;SDS011;56472;52.114;5.492;2023-04-15T08:07:58;8.60;;;6.53;;
69327;SDS011;56472;52.114;5.492;2023-04-15T08:10:25;6.90;;;5.50;;
69327;SDS011;56472;52.114;5.492;2023-04-15T08:12:53;7.00;;;5.60;;
69327;SDS011;56472;52.114;5.492;2023-04-15T08:15:20;6.70;;;5.90;;
69327;SDS011;56472;52.114;5.492;2023-04-15T08:17:47;6.65;;;5.57;;
69327;SDS011;56472;52.114;5.492;2023-04-15T08:20:14;6.68;;;5.32;;
69327;SDS011;56472;52.114;5.492;2023-04-15T08:22:41;6.40;;;5.38;;
69327;SDS011;56472;52.114;5.492;2023-04-15T08:25:08;5.55;;;4.40;;
69327;SDS011;56472;52.114;5.492;2023-04-15T08:27:35;8.40;;;5.10;;
69327;SDS011;56472;52.114;5.492;2023-04-15T08:30:02;6.82;;;4.90;;
69327;SDS011;56472;52.114;5.492;2023-04-15T08:32:30;6.18;;;4.90;;
69327;SDS011;56472;52.114;5.492;2023-04-15T08:34:57;5.28;;;4.50;;
69327;SDS011;56472;52.114;5.492;2023-04-15T08:37:24;5.70;;;4.28;;
69327;SDS011;56472;52.114;5.492;2023-04-15T08:39:52;4.10;;;3.67;;
69327;SDS011;56472;52.114;5.492;2023-04-15T08:42:22;5.72;;;3.55;;
69327;SDS011;56472;52.114;5.492;2023-04-15T08:44:55;4.10;;;3.70;;
69327;SDS011;56472;52.114;5.492;2023-04-15T08:47:23;4.68;;;3.60;;
69327;SDS011;56472;52.114;5.492;2023-04-15T08:49:55;4.45;;;4.05;;
69327;SDS011;56472;52.114;5.492;2023-04-15T08:52:26;3.90;;;3.60;;
69327;SDS011;56472;52.114;5.492;2023-04-15T08:54:54;4.10;;;3.80;;
69327;SDS011;56472;52.114;5.492;2023-04-15T08:57:25;5.22;;;3.60;;
69327;SDS011;56472;52.114;5.492;2023-04-15T08:59:54;3.67;;;3.38;;
69327;SDS011;56472;52.114;5.492;2023-04-15T09:02:23;4.13;;;3.75;;
69327;SDS011;56472;52.114;5.492;2023-04-15T09:04:52;7.07;;;3.83;;
69327;SDS011;56472;52.114;5.492;2023-04-15T09:07:19;3.88;;;3.42;;
69327;SDS011;56472;52.114;5.492;2023-04-15T09:09:46;4.03;;;3.60;;
69327;SDS011;56472;52.114;5.492;2023-04-15T09:12:13;5.38;;;4.30;;
69327;SDS011;56472;52.114;5.492;2023-04-15T09:14:44;4.63;;;4.22;;
69327;SDS011;56472;52.114;5.492;2023-04-15T09:17:11;4.85;;;4.30;;
69327;SDS011;56472;52.114;5.492;2023-04-15T09:19:38;8.55;;;5.25;;
69327;SDS011;56472;52.114;5.492;2023-04-15T09:22:05;6.45;;;4.95;;
69327;SDS011;56472;52.114;5.492;2023-04-15T09:24:36;5.53;;;5.03;;
69327;SDS011;56472;52.114;5.492;2023-04-15T09:27:04;10.10;;;5.28;;
69327;SDS011;56472;52.114;5.492;2023-04-15T09:29:31;7.55;;;5.20;;
69327;SDS011;56472;52.114;5.492;2023-04-15T09:32:12;5.88;;;5.28;;
69327;SDS011;56472;52.114;5.492;2023-04-15T09:34:40;9.30;;;5.25;;
69327;SDS011;56472;52.114;5.492;2023-04-15T09:37:07;7.25;;;4.57;;
69327;SDS011;56472;52.114;5.492;2023-04-15T09:39:46;5.70;;;4.68;;
69327;SDS011;56472;52.114;5.492;2023-04-15T09:42:13;5.10;;;4.65;;
69327;SDS011;56472;52.114;5.492;2023-04-15T09:44:40;5.93;;;4.50;;
69327;SDS011;56472;52.114;5.492;2023-04-15T09:47:07;5.75;;;4.43;;
69327;SDS011;56472;52.114;5.492;2023-04-15T09:49:34;6.60;;;4.25;;
69327;SDS011;56472;52.114;5.492;2023-04-15T09:52:01;4.40;;;3.58;;
69327;SDS011;56472;52.114;5.492;2023-04-15T09:54:32;6.63;;;2.70;;
69327;SDS011;56472;52.114;5.492;2023-04-15T09:57:07;2.90;;;2.70;;
69327;SDS011;56472;52.114;5.492;2023-04-15T09:59:37;3.00;;;2.80;;
69327;SDS011;56472;52.114;5.492;2023-04-15T10:02:04;5.25;;;2.80;;
69327;SDS011;56472;52.114;5.492;2023-04-15T10:04:37;4.00;;;3.15;;
69327;SDS011;56472;52.114;5.492;2023-04-15T10:07:10;3.85;;;3.03;;
69327;SDS011;56472;52.114;5.492;2023-04-15T10:09:38;5.90;;;4.27;;
69327;SDS011;56472;52.114;5.492;2023-04-15T10:12:05;6.07;;;2.92;;
69327;SDS011;56472;52.114;5.492;2023-04-15T10:14:33;3.47;;;2.42;;
69327;SDS011;56472;52.114;5.492;2023-04-15T10:17:04;3.47;;;2.97;;
69327;SDS011;56472;52.114;5.492;2023-04-15T10:19:32;2.85;;;2.60;;
69327;SDS011;56472;52.114;5.492;2023-04-15T10:22:02;5.43;;;3.10;;
69327;SDS011;56472;52.114;5.492;2023-04-15T10:24:31;5.68;;;2.97;;
69327;SDS011;56472;52.114;5.492;2023-04-15T10:26:59;3.97;;;2.95;;
69327;SDS011;56472;52.114;5.492;2023-04-15T10:29:27;3.40;;;3.20;;
69327;SDS011;56472;52.114;5.492;2023-04-15T10:31:54;3.50;;;3.20;;
69327;SDS011;56472;52.114;5.492;2023-04-15T10:34:22;3.33;;;2.90;;
69327;SDS011;56472;52.114;5.492;2023-04-15T10:36:50;3.10;;;2.90;;
69327;SDS011;56472;52.114;5.492;2023-04-15T10:39:38;4.30;;;3.80;;
69327;SDS011;56472;52.114;5.492;2023-04-15T10:42:06;3.38;;;3.17;;
69327;SDS011;56472;52.114;5.492;2023-04-15T10:44:36;5.85;;;3.60;;
69327;SDS011;56472;52.114;5.492;2023-04-15T10:47:05;4.40;;;3.47;;
69327;SDS011;56472;52.114;5.492;2023-04-15T10:49:45;5.97;;;3.47;;
69327;SDS011;56472;52.114;5.492;2023-04-15T10:52:15;4.65;;;3.67;;
69327;SDS011;56472;52.114;5.492;2023-04-15T10:54:43;4.05;;;3.05;;
69327;SDS011;56472;52.114;5.492;2023-04-15T10:57:14;4.68;;;3.42;;
69327;SDS011;56472;52.114;5.492;2023-04-15T10:59:58;4.55;;;3.42;;
69327;SDS011;56472;52.114;5.492;2023-04-15T11:13:02;3.70;;;2.60;;
69327;SDS011;56472;52.114;5.492;2023-04-15T11:18:11;3.15;;;2.80;;
69327;SDS011;56472;52.114;5.492;2023-04-15T11:20:49;2.90;;;2.63;;
69327;SDS011;56472;52.114;5.492;2023-04-15T11:23:17;3.53;;;2.72;;
69327;SDS011;56472;52.114;5.492;2023-04-15T11:25:45;3.35;;;2.72;;
69327;SDS011;56472;52.114;5.492;2023-04-15T11:28:13;3.05;;;2.53;;
69327;SDS011;56472;52.114;5.492;2023-04-15T11:30:41;3.22;;;3.00;;
69327;SDS011;56472;52.114;5.492;2023-04-15T11:33:09;2.58;;;2.22;;
69327;SDS011;56472;52.114;5.492;2023-04-15T11:35:38;2.85;;;2.38;;
69327;SDS011;56472;52.114;5.492;2023-04-15T11:38:11;4.57;;;2.45;;
69327;SDS011;56472;52.114;5.492;2023-04-15T11:40:42;2.60;;;2.40;;
69327;SDS011;56472;52.114;5.492;2023-04-15T11:43:19;2.65;;;2.45;;
69327;SDS011;56472;52.114;5.492;2023-04-15T11:48:22;4.53;;;2.80;;
69327;SDS011;56472;52.114;5.492;2023-04-15T11:53:22;3.63;;;2.33;;
69327;SDS011;56472;52.114;5.492;2023-04-15T11:55:50;2.30;;;2.17;;
69327;SDS011;56472;52.114;5.492;2023-04-15T11:58:19;2.70;;;2.40;;
69327;SDS011;56472;52.114;5.492;2023-04-15T12:00:56;3.80;;;2.30;;
69327;SDS011;56472;52.114;5.492;2023-04-15T12:14:30;8.57;;;1.88;;
69327;SDS011;56472;52.114;5.492;2023-04-15T12:17:04;3.35;;;1.98;;
69327;SDS011;56472;52.114;5.492;2023-04-15T12:22:13;4.07;;;1.80;;
69327;SDS011;56472;52.114;5.492;2023-04-15T12:24:41;2.40;;;1.83;;
69327;SDS011;56472;52.114;5.492;2023-04-15T12:27:10;2.15;;;2.05;;
69327;SDS011;56472;52.114;5.492;2023-04-15T12:29:38;2.15;;;2.03;;
69327;SDS011;56472;52.114;5.492;2023-04-15T12:32:09;6.20;;;2.28;;
69327;SDS011;56472;52.114;5.492;2023-04-15T12:34:48;2.33;;;2.00;;
69327;SDS011;56472;52.114;5.492;2023-04-15T12:37:16;3.17;;;1.73;;
69327;SDS011;56472;52.114;5.492;2023-04-15T12:39:44;4.45;;;1.58;;
69327;SDS011;56472;52.114;5.492;2023-04-15T12:42:14;3.15;;;1.67;;
69327;SDS011;56472;52.114;5.492;2023-04-15T12:44:42;1.90;;;1.60;;
69327;SDS011;56472;52.114;5.492;2023-04-15T12:47:09;4.65;;;1.60;;
69327;SDS011;56472;52.114;5.492;2023-04-15T12:49:36;3.70;;;1.17;;
69327;SDS011;56472;52.114;5.492;2023-04-15T12:52:04;1.40;;;1.27;;
69327;SDS011;56472;52.114;5.492;2023-04-15T12:54:32;1.50;;;1.20;;
69327;SDS011;56472;52.114;5.492;2023-04-15T12:56:59;1.50;;;1.40;;
69327;SDS011;56472;52.114;5.492;2023-04-15T12:59:31;3.40;;;1.67;;
69327;SDS011;56472;52.114;5.492;2023-04-15T13:01:58;1.85;;;1.40;;
69327;SDS011;56472;52.114;5.492;2023-04-15T13:04:26;1.42;;;1.30;;
69327;SDS011;56472;52.114;5.492;2023-04-15T13:06:56;2.20;;;1.50;;
69327;SDS011;56472;52.114;5.492;2023-04-15T13:09:23;3.92;;;1.77;;
69327;SDS011;56472;52.114;5.492;2023-04-15T13:11:50;2.25;;;1.52;;
69327;SDS011;56472;52.114;5.492;2023-04-15T13:14:18;2.08;;;1.48;;
69327;SDS011;56472;52.114;5.492;2023-04-15T13:16:45;2.78;;;1.30;;
69327;SDS011;56472;52.114;5.492;2023-04-15T13:19:12;4.20;;;1.25;;
69327;SDS011;56472;52.114;5.492;2023-04-15T13:21:39;7.32;;;1.38;;
69327;SDS011;56472;52.114;5.492;2023-04-15T13:24:06;1.70;;;1.08;;
69327;SDS011;56472;52.114;5.492;2023-04-15T13:26:34;2.65;;;1.60;;
69327;SDS011;56472;52.114;5.492;2023-04-15T13:29:03;4.25;;;1.60;;
69327;SDS011;56472;52.114;5.492;2023-04-15T13:31:30;1.80;;;1.40;;
69327;SDS011;56472;52.114;5.492;2023-04-15T13:33:57;3.03;;;1.67;;
69327;SDS011;56472;52.114;5.492;2023-04-15T13:36:23;6.70;;;1.50;;
69327;SDS011;56472;52.114;5.492;2023-04-15T13:38:51;2.97;;;1.63;;
69327;SDS011;56472;52.114;5.492;2023-04-15T13:41:18;7.03;;;1.60;;
69327;SDS011;56472;52.114;5.492;2023-04-15T13:43:46;9.55;;;1.80;;
69327;SDS011;56472;52.114;5.492;2023-04-15T13:46:13;3.60;;;1.60;;
69327;SDS011;56472;52.114;5.492;2023-04-15T13:48:40;4.50;;;1.60;;
69327;SDS011;56472;52.114;5.492;2023-04-15T13:51:07;3.20;;;1.75;;
69327;SDS011;56472;52.114;5.492;2023-04-15T13:53:34;6.15;;;1.75;;
69327;SDS011;56472;52.114;5.492;2023-04-15T13:56:05;1.63;;;1.52;;
69327;SDS011;56472;52.114;5.492;2023-04-15T13:58:32;1.63;;;1.38;;
69327;SDS011;56472;52.114;5.492;2023-04-15T14:00:59;3.60;;;1.17;;
69327;SDS011;56472;52.114;5.492;2023-04-15T14:03:29;2.38;;;1.13;;
69327;SDS011;56472;52.114;5.492;2023-04-15T14:05:56;2.78;;;1.17;;
69327;SDS011;56472;52.114;5.492;2023-04-15T14:08:23;3.70;;;1.00;;
69327;SDS011;56472;52.114;5.492;2023-04-15T14:10:51;2.67;;;1.10;;
69327;SDS011;56472;52.114;5.492;2023-04-15T14:13:18;1.98;;;1.00;;
69327;SDS011;56472;52.114;5.492;2023-04-15T14:15:45;1.30;;;1.20;;
69327;SDS011;56472;52.114;5.492;2023-04-15T14:18:12;3.40;;;1.23;;
69327;SDS011;56472;52.114;5.492;2023-04-15T14:20:39;8.15;;;1.17;;
69327;SDS011;56472;52.114;5.492;2023-04-15T14:23:06;4.18;;;1.30;;
69327;SDS011;56472;52.114;5.492;2023-04-15T14:25:33;2.20;;;1.08;;
69327;SDS011;56472;52.114;5.492;2023-04-15T14:28:00;3.15;;;1.63;;
69327;SDS011;56472;52.114;5.492;2023-04-15T14:30:28;2.45;;;1.25;;
69327;SDS011;56472;52.114;5.492;2023-04-15T14:32:55;5.00;;;1.52;;
69327;SDS011;56472;52.114;5.492;2023-04-15T14:35:22;3.38;;;1.25;;
69327;SDS011;56472;52.114;5.492;2023-04-15T14:37:52;5.18;;;1.75;;
69327;SDS011;56472;52.114;5.492;2023-04-15T14:40:19;5.68;;;1.90;;
69327;SDS011;56472;52.114;5.492;2023-04-15T14:42:46;4.53;;;1.98;;
69327;SDS011;56472;52.114;5.492;2023-04-15T14:45:13;6.28;;;2.15;;
69327;SDS011;56472;52.114;5.492;2023-04-15T14:47:39;3.53;;;1.80;;
69327;SDS011;56472;52.114;5.492;2023-04-15T14:50:07;10.73;;;2.40;;
69327;SDS011;56472;52.114;5.492;2023-04-15T14:52:34;3.92;;;1.60;;
69327;SDS011;56472;52.114;5.492;2023-04-15T14:55:07;4.60;;;1.70;;
69327;SDS011;56472;52.114;5.492;2023-04-15T14:57:36;3.35;;;1.58;;
69327;SDS011;56472;52.114;5.492;2023-04-15T15:00:04;6.93;;;2.20;;
69327;SDS011;56472;52.114;5.492;2023-04-15T15:02:32;6.60;;;1.33;;
69327;SDS011;56472;52.114;5.492;2023-04-15T15:05:05;4.53;;;1.55;;
69327;SDS011;56472;52.114;5.492;2023-04-15T15:07:33;3.92;;;1.30;;
69327;SDS011;56472;52.114;5.492;2023-04-15T15:10:02;4.90;;;1.40;;
69327;SDS011;56472;52.114;5.492;2023-04-15T15:12:29;6.15;;;1.50;;
69327;SDS011;56472;52.114;5.492;2023-04-15T15:14:57;4.35;;;1.38;;
69327;SDS011;56472;52.114;5.492;2023-04-15T15:17:25;9.05;;;1.65;;